createdAt,value
2022-12-03T00:02:21.539Z,26.17
2022-12-03T00:04:48.535Z,27.77
2022-12-03T00:07:15.467Z,25.80
2022-12-03T00:09:42.959Z,23.73
2022-12-03T00:12:09.963Z,24.95
2022-12-03T00:14:41.250Z,26.13
2022-12-03T00:17:11.340Z,23.70
2022-12-03T00:19:38.221Z,26.38
2022-12-03T00:22:05.175Z,23.35
2022-12-03T00:24:32.279Z,25.90
2022-12-03T00:26:59.215Z,24.40
2022-12-03T00:29:26.130Z,24.48
2022-12-03T00:31:53.106Z,22.60
2022-12-03T00:34:20.042Z,26.45
2022-12-03T00:36:47.017Z,23.70
2022-12-03T00:39:13.965Z,21.88
2022-12-03T00:41:40.888Z,21.88
2022-12-03T00:44:07.885Z,24.27
2022-12-03T00:46:34.846Z,21.48
2022-12-03T00:49:01.848Z,21.33
2022-12-03T00:51:28.848Z,24.10
2022-12-03T00:53:55.729Z,20.60
2022-12-03T00:56:22.661Z,22.58
2022-12-03T00:58:50.039Z,21.50
2022-12-03T01:01:17.022Z,20.17
2022-12-03T01:03:43.916Z,21.77
2022-12-03T01:06:10.838Z,24.52
2022-12-03T01:08:37.739Z,24.45
2022-12-03T01:11:24.739Z,22.33
2022-12-03T01:13:51.659Z,20.77
2022-12-03T01:16:18.568Z,21.15
2022-12-03T01:18:46.476Z,22.27
2022-12-03T01:21:13.386Z,22.77
2022-12-03T01:23:40.358Z,21.05
2022-12-03T01:26:07.248Z,21.75
2022-12-03T01:28:34.354Z,23.52
2022-12-03T01:31:19.752Z,22.48
2022-12-03T01:33:46.730Z,21.15
2022-12-03T01:36:13.612Z,21.17
2022-12-03T01:38:40.620Z,20.88
2022-12-03T01:41:11.712Z,22.27
2022-12-03T01:43:39.106Z,31.35
2022-12-03T01:46:06.157Z,27.90
2022-12-03T01:48:34.414Z,24.55
2022-12-03T01:51:01.489Z,24.30
2022-12-03T01:53:28.410Z,27.70
2022-12-03T01:55:55.307Z,27.33
2022-12-03T01:58:26.674Z,29.70
2022-12-03T02:00:53.889Z,33.45
2022-12-03T02:03:25.673Z,33.63
2022-12-03T02:05:52.649Z,31.48
2022-12-03T02:08:28.607Z,34.70
2022-12-03T02:10:55.706Z,33.40
2022-12-03T02:13:22.631Z,33.17
2022-12-03T02:15:49.707Z,36.72
2022-12-03T02:18:16.635Z,34.08
2022-12-03T02:21:13.332Z,36.83
2022-12-03T02:23:59.240Z,35.75
2022-12-03T02:26:26.214Z,38.08
2022-12-03T02:28:53.097Z,35.53
2022-12-03T02:31:20.130Z,35.80
2022-12-03T02:33:47.155Z,32.67
2022-12-03T02:36:14.163Z,34.10
2022-12-03T02:38:41.182Z,36.72
2022-12-03T02:41:10.535Z,34.95
2022-12-03T02:43:37.644Z,32.97
2022-12-03T02:46:04.767Z,31.17
2022-12-03T02:48:38.651Z,33.85
2022-12-03T02:51:09.402Z,33.72
2022-12-03T02:53:42.466Z,30.10
2022-12-03T02:56:09.582Z,31.75
2022-12-03T02:58:36.469Z,31.80
2022-12-03T03:01:03.552Z,32.40
2022-12-03T03:03:30.745Z,30.20
2022-12-03T03:05:57.762Z,31.73
2022-12-03T03:08:24.900Z,37.42
2022-12-03T03:10:51.802Z,31.77
2022-12-03T03:13:19.574Z,31.85
2022-12-03T03:15:46.542Z,29.35
2022-12-03T03:18:14.870Z,27.70
2022-12-03T03:20:41.867Z,28.48
2022-12-03T03:23:11.827Z,24.63
2022-12-03T03:25:39.558Z,25.67
2022-12-03T03:28:06.549Z,24.77
2022-12-03T03:30:33.745Z,23.45
2022-12-03T03:33:00.679Z,21.88
2022-12-03T03:35:27.614Z,16.67
2022-12-03T03:37:54.805Z,15.63
2022-12-03T03:40:21.769Z,14.75
2022-12-03T03:42:48.775Z,17.85
2022-12-03T03:45:16.703Z,19.42
2022-12-03T03:47:43.634Z,11.80
2022-12-03T03:50:11.140Z,18.88
2022-12-03T03:52:38.096Z,21.48
2022-12-03T03:55:05.667Z,24.00
2022-12-03T03:57:32.709Z,23.33
2022-12-03T03:59:59.856Z,22.35
2022-12-03T04:02:27.807Z,21.95
2022-12-03T04:04:54.902Z,21.95
2022-12-03T04:07:22.135Z,22.30
2022-12-03T04:09:49.171Z,20.15
2022-12-03T04:12:34.639Z,17.77
2022-12-03T04:15:01.585Z,21.17
2022-12-03T04:17:28.491Z,18.17
2022-12-03T04:19:55.486Z,21.40
2022-12-03T04:22:40.535Z,20.13
2022-12-03T04:25:27.048Z,16.00
2022-12-03T04:28:13.002Z,19.40
2022-12-03T04:30:40.061Z,19.75
2022-12-03T04:33:25.546Z,17.38
2022-12-03T04:35:52.699Z,14.18
2022-12-03T04:38:19.699Z,19.40
2022-12-03T04:41:01.660Z,16.65
2022-12-03T04:43:28.989Z,12.98
2022-12-03T04:45:56.002Z,15.80
2022-12-03T04:48:23.128Z,14.30
2022-12-03T04:50:50.038Z,23.15
2022-12-03T04:53:17.073Z,12.63
2022-12-03T04:55:44.051Z,11.93
2022-12-03T04:58:11.009Z,13.10
2022-12-03T05:00:37.946Z,15.50
2022-12-03T05:03:04.965Z,13.20
2022-12-03T05:05:31.925Z,11.95
2022-12-03T05:07:58.987Z,16.52
2022-12-03T05:10:25.980Z,16.85
2022-12-03T05:12:52.930Z,15.98
2022-12-03T05:15:19.819Z,15.40
2022-12-03T05:17:46.770Z,17.52
2022-12-03T05:20:32.610Z,15.75
2022-12-03T05:22:59.596Z,13.93
2022-12-03T05:25:26.481Z,19.63
2022-12-03T05:27:53.730Z,10.38
2022-12-03T05:30:21.111Z,14.77
2022-12-03T05:32:48.062Z,14.35
2022-12-03T05:35:15.053Z,19.52
2022-12-03T05:37:42.083Z,23.23
2022-12-03T05:40:09.865Z,14.38
2022-12-03T05:42:54.953Z,15.65
2022-12-03T05:45:22.952Z,14.57
2022-12-03T05:47:49.877Z,21.08
2022-12-03T05:50:17.133Z,15.90
2022-12-03T05:52:44.104Z,13.93
2022-12-03T05:55:11.937Z,12.60
2022-12-03T05:57:38.936Z,17.35
2022-12-03T06:00:07.036Z,18.50
2022-12-03T06:02:39.580Z,19.40
2022-12-03T06:05:07.416Z,21.02
2022-12-03T06:07:34.425Z,18.77
2022-12-03T06:10:01.454Z,18.88
2022-12-03T06:12:28.407Z,24.67
2022-12-03T06:14:55.699Z,21.02
2022-12-03T06:17:22.827Z,15.10
2022-12-03T06:19:49.845Z,18.25
2022-12-03T06:22:16.754Z,18.98
2022-12-03T06:24:43.750Z,16.20
2022-12-03T06:27:11.275Z,11.77
2022-12-03T06:29:38.449Z,10.73
2022-12-03T06:32:07.749Z,11.15
2022-12-03T06:34:35.154Z,9.05
2022-12-03T06:37:02.040Z,11.68
2022-12-03T06:39:29.115Z,11.75
2022-12-03T06:41:56.278Z,14.70
2022-12-03T06:44:23.264Z,11.75
2022-12-03T06:46:50.385Z,10.98
2022-12-03T06:49:17.479Z,12.00
2022-12-03T06:51:44.877Z,13.60
2022-12-03T06:54:11.899Z,12.60
2022-12-03T06:56:44.841Z,18.85
2022-12-03T07:01:39.420Z,13.27
2022-12-03T07:04:06.459Z,11.13
2022-12-03T07:06:33.494Z,14.07
2022-12-03T07:09:00.497Z,15.65
2022-12-03T07:11:40.140Z,19.65
2022-12-03T07:14:08.061Z,28.27
2022-12-03T07:16:35.968Z,24.25
2022-12-03T07:19:03.999Z,24.83
2022-12-03T07:21:30.986Z,25.75
2022-12-03T07:23:57.981Z,19.23
2022-12-03T07:26:27.344Z,14.98
2022-12-03T07:28:55.755Z,16.45
2022-12-03T07:31:22.708Z,20.02
2022-12-03T07:33:49.718Z,20.85
2022-12-03T07:36:16.769Z,29.10
2022-12-03T07:38:48.391Z,38.92
2022-12-03T07:41:15.822Z,17.67
2022-12-03T07:43:42.791Z,14.55
2022-12-03T07:46:09.807Z,14.13
2022-12-03T07:48:38.560Z,12.45
2022-12-03T07:51:05.856Z,13.15
2022-12-03T07:53:36.310Z,13.88
2022-12-03T07:56:04.766Z,10.75
2022-12-03T07:58:31.695Z,13.52
2022-12-03T08:00:58.972Z,13.40
2022-12-03T08:03:27.307Z,13.27
2022-12-03T08:05:54.341Z,11.07
2022-12-03T08:08:21.410Z,11.55
2022-12-03T08:10:48.436Z,11.27
2022-12-03T08:13:16.319Z,9.73
2022-12-03T08:15:43.420Z,11.07
2022-12-03T08:18:18.453Z,12.45
2022-12-03T08:20:48.313Z,9.95
2022-12-03T08:23:17.031Z,7.88
2022-12-03T08:25:44.316Z,11.90
2022-12-03T08:28:19.644Z,13.43
2022-12-03T08:31:05.953Z,11.10
2022-12-03T08:33:35.383Z,13.93
2022-12-03T08:36:11.637Z,9.55
2022-12-03T08:38:41.195Z,9.30
2022-12-03T08:41:37.244Z,12.57
2022-12-03T08:44:28.322Z,14.48
2022-12-03T08:47:10.348Z,12.55
2022-12-03T08:49:37.424Z,23.67
2022-12-03T08:52:16.212Z,17.13
2022-12-03T08:54:45.003Z,15.85
2022-12-03T08:57:32.604Z,14.35
2022-12-03T09:00:18.152Z,14.55
2022-12-03T09:02:48.988Z,12.60
2022-12-03T09:05:20.533Z,10.32
2022-12-03T09:07:48.728Z,12.93
2022-12-03T09:10:15.769Z,12.00
2022-12-03T09:12:42.759Z,13.48
2022-12-03T09:15:12.383Z,11.13
2022-12-03T09:17:39.783Z,10.98
2022-12-03T09:20:07.464Z,19.05
2022-12-03T09:22:34.475Z,12.35
2022-12-03T09:25:01.434Z,17.50
2022-12-03T09:27:28.454Z,10.00
2022-12-03T09:29:55.407Z,14.07
2022-12-03T09:32:22.523Z,15.05
2022-12-03T09:34:49.653Z,12.88
2022-12-03T09:37:16.631Z,9.50
2022-12-03T09:39:43.600Z,16.35
2022-12-03T09:42:12.460Z,9.73
2022-12-03T09:44:41.714Z,12.98
2022-12-03T09:47:08.906Z,10.95
2022-12-03T09:49:36.533Z,17.55
2022-12-03T09:52:03.859Z,8.85
2022-12-03T09:54:31.255Z,11.60
2022-12-03T09:57:00.570Z,12.40
2022-12-03T09:59:31.618Z,13.32
2022-12-03T10:01:58.825Z,20.45
2022-12-03T10:04:27.408Z,17.33
2022-12-03T10:06:54.790Z,16.60
2022-12-03T10:09:26.617Z,16.75
2022-12-03T10:11:53.673Z,17.98
2022-12-03T10:14:20.778Z,20.35
2022-12-03T10:16:47.879Z,17.58
2022-12-03T10:19:34.134Z,17.98
2022-12-03T10:22:01.174Z,18.90
2022-12-03T10:24:35.241Z,19.50
2022-12-03T10:27:29.526Z,18.95
2022-12-03T10:32:29.002Z,18.38
2022-12-03T10:35:13.369Z,24.10
2022-12-03T10:38:03.414Z,15.02
2022-12-03T10:40:31.428Z,14.07
2022-12-03T10:43:20.409Z,15.90
2022-12-03T10:45:51.934Z,14.60
2022-12-03T10:48:20.658Z,15.85
2022-12-03T10:51:00.855Z,18.27
2022-12-03T10:53:30.297Z,16.65
2022-12-03T10:55:59.715Z,15.50
2022-12-03T10:58:31.318Z,21.48
2022-12-03T11:00:58.787Z,21.17
2022-12-03T11:03:28.178Z,18.52
2022-12-03T11:05:55.799Z,19.25
2022-12-03T11:08:24.712Z,18.65
2022-12-03T11:10:59.213Z,17.05
2022-12-03T11:13:50.206Z,12.48
2022-12-03T11:17:00.909Z,11.55
2022-12-03T11:19:37.844Z,12.88
2022-12-03T11:22:24.761Z,15.02
2022-12-03T11:25:31.615Z,18.92
2022-12-03T11:28:13.632Z,11.00
2022-12-03T11:30:52.293Z,10.52
2022-12-03T11:33:25.754Z,11.10
2022-12-03T11:36:05.296Z,12.68
2022-12-03T11:38:38.465Z,14.55
2022-12-03T11:41:17.219Z,10.77
2022-12-03T11:43:57.403Z,14.20
2022-12-03T11:46:36.619Z,21.90
2022-12-03T11:49:23.275Z,16.63
2022-12-03T11:51:50.278Z,11.75
2022-12-03T11:54:18.284Z,19.58
2022-12-03T11:56:46.301Z,16.85
2022-12-03T11:59:13.545Z,15.07
2022-12-03T12:01:42.243Z,15.70
2022-12-03T12:04:30.649Z,18.83
2022-12-03T12:06:57.808Z,20.23
2022-12-03T12:09:54.013Z,14.15
2022-12-03T12:12:39.051Z,12.48
2022-12-03T12:15:34.331Z,13.15
2022-12-03T12:18:38.821Z,12.63
2022-12-03T12:21:43.266Z,10.40
2022-12-03T12:24:31.991Z,11.30
2022-12-03T12:27:00.907Z,15.38
2022-12-03T12:29:28.049Z,16.20
2022-12-03T12:32:08.062Z,13.27
2022-12-03T12:34:39.244Z,18.58
2022-12-03T12:37:32.702Z,21.52
2022-12-03T12:40:00.137Z,19.37
2022-12-03T12:42:37.323Z,13.02
2022-12-03T12:45:16.498Z,16.65
2022-12-03T12:47:48.004Z,17.20
2022-12-03T12:50:16.197Z,15.68
2022-12-03T12:52:49.260Z,14.63
2022-12-03T12:55:17.524Z,18.42
2022-12-03T12:57:44.576Z,18.85
2022-12-03T13:00:19.252Z,16.55
2022-12-03T13:02:55.704Z,12.65
2022-12-03T13:05:23.542Z,15.48
2022-12-03T13:07:50.547Z,13.68
2022-12-03T13:10:35.694Z,15.55
2022-12-03T13:13:18.534Z,16.13
2022-12-03T13:15:52.289Z,13.70
2022-12-03T13:20:51.530Z,13.93
2022-12-03T13:23:34.835Z,20.50
2022-12-03T13:26:21.459Z,14.40
2022-12-03T13:28:52.308Z,11.40
2022-12-03T13:31:23.335Z,10.23
2022-12-03T13:33:50.806Z,13.52
2022-12-03T13:36:18.125Z,13.15
2022-12-03T13:38:46.363Z,14.43
2022-12-03T13:41:35.262Z,10.02
2022-12-03T13:44:02.283Z,10.57
2022-12-03T13:46:29.393Z,13.98
2022-12-03T13:49:01.562Z,15.45
2022-12-03T13:51:30.699Z,31.75
2022-12-03T13:53:58.459Z,26.50
2022-12-03T13:56:32.519Z,20.40
2022-12-03T13:59:00.463Z,23.30
2022-12-03T14:01:28.079Z,28.77
2022-12-03T14:03:55.078Z,32.45
2022-12-03T14:06:22.162Z,29.77
2022-12-03T14:08:49.489Z,23.13
2022-12-03T14:11:35.093Z,25.80
2022-12-03T14:14:02.143Z,34.85
2022-12-03T14:16:29.162Z,20.77
2022-12-03T14:18:56.282Z,26.23
2022-12-03T14:21:23.159Z,20.35
2022-12-03T14:23:50.119Z,22.45
2022-12-03T14:26:17.124Z,22.35
2022-12-03T14:28:44.019Z,28.67
2022-12-03T14:31:10.920Z,29.15
2022-12-03T14:33:37.945Z,26.65
2022-12-03T14:36:05.206Z,30.63
2022-12-03T14:38:32.322Z,29.10
2022-12-03T14:40:59.317Z,36.22
2022-12-03T14:43:26.421Z,42.33
2022-12-03T14:45:55.568Z,45.20
2022-12-03T14:48:22.620Z,37.58
2022-12-03T14:50:49.575Z,57.33
2022-12-03T14:53:16.631Z,36.08
2022-12-03T14:55:47.372Z,33.42
2022-12-03T14:58:14.484Z,27.25
2022-12-03T15:00:41.456Z,25.70
2022-12-03T15:03:08.431Z,19.17
2022-12-03T15:05:38.048Z,19.40
2022-12-03T15:08:06.565Z,14.15
2022-12-03T15:10:35.180Z,13.38
2022-12-03T15:13:20.890Z,12.30
2022-12-03T15:15:50.903Z,12.25
2022-12-03T15:18:17.946Z,14.57
2022-12-03T15:20:45.051Z,11.02
2022-12-03T15:23:14.539Z,11.13
2022-12-03T15:25:43.877Z,10.30
2022-12-03T15:28:12.304Z,13.30
2022-12-03T15:30:39.284Z,9.88
2022-12-03T15:33:06.553Z,10.90
2022-12-03T15:35:33.544Z,13.13
2022-12-03T15:38:00.542Z,13.70
2022-12-03T15:40:29.305Z,15.73
2022-12-03T15:42:56.257Z,22.60
2022-12-03T15:45:23.535Z,44.85
2022-12-03T15:47:54.459Z,30.23
2022-12-03T15:52:51.288Z,28.23
2022-12-03T15:55:18.646Z,31.02
2022-12-03T15:57:51.025Z,36.40
2022-12-03T16:00:18.373Z,27.40
2022-12-03T16:02:52.242Z,26.60
2022-12-03T16:05:20.182Z,28.88
2022-12-03T16:07:50.368Z,27.20
2022-12-03T16:10:21.600Z,25.27
2022-12-03T16:12:51.306Z,26.75
2022-12-03T16:15:20.992Z,24.88
2022-12-03T16:18:01.278Z,25.15
2022-12-03T16:20:32.162Z,22.15
2022-12-03T16:22:59.199Z,26.48
2022-12-03T16:25:28.962Z,27.00
2022-12-03T16:28:02.329Z,26.40
2022-12-03T16:30:31.879Z,28.30
2022-12-03T16:32:59.079Z,34.08
2022-12-03T16:35:26.517Z,27.60
2022-12-03T16:37:59.599Z,43.58
2022-12-03T16:40:31.824Z,28.83
2022-12-03T16:42:59.035Z,31.17
2022-12-03T16:45:46.494Z,31.17
2022-12-03T16:48:21.402Z,28.77
2022-12-03T16:50:48.646Z,38.70
2022-12-03T16:53:17.919Z,39.17
2022-12-03T16:55:47.192Z,36.08
2022-12-03T16:58:21.375Z,36.10
2022-12-03T17:00:49.158Z,38.45
2022-12-03T17:03:18.017Z,37.67
2022-12-03T17:05:45.537Z,38.78
2022-12-03T17:08:12.881Z,54.60
2022-12-03T17:10:40.113Z,40.00
2022-12-03T17:13:09.758Z,44.60
2022-12-03T17:15:37.458Z,35.05
2022-12-03T17:18:04.457Z,37.50
2022-12-03T17:20:32.061Z,35.15
2022-12-03T17:22:59.533Z,31.23
2022-12-03T17:25:27.056Z,28.58
2022-12-03T17:27:54.016Z,34.58
2022-12-03T17:30:21.144Z,33.00
2022-12-03T17:32:50.598Z,30.30
2022-12-03T17:35:17.984Z,28.02
2022-12-03T17:37:45.084Z,30.80
2022-12-03T17:40:13.129Z,30.95
2022-12-03T17:42:40.229Z,30.35
2022-12-03T17:45:07.866Z,27.30
2022-12-03T17:47:34.774Z,29.70
2022-12-03T17:50:01.961Z,34.80
2022-12-03T17:52:28.931Z,26.15
2022-12-03T17:55:10.823Z,23.45
2022-12-03T17:57:39.106Z,20.47
2022-12-03T18:00:06.626Z,21.60
2022-12-03T18:02:39.306Z,17.07
2022-12-03T18:05:06.469Z,17.85
2022-12-03T18:07:34.168Z,14.88
2022-12-03T18:10:01.339Z,15.02
2022-12-03T18:12:28.449Z,13.48
2022-12-03T18:14:55.472Z,15.20
2022-12-03T18:17:23.829Z,17.35
2022-12-03T18:19:50.862Z,16.25
2022-12-03T18:22:18.317Z,32.20
2022-12-03T18:24:47.553Z,39.47
2022-12-03T18:27:17.450Z,37.65
2022-12-03T18:29:44.376Z,43.92
2022-12-03T18:32:27.105Z,39.92
2022-12-03T18:34:55.163Z,48.38
2022-12-03T18:37:22.145Z,40.13
2022-12-03T18:39:49.325Z,31.25
2022-12-03T18:42:20.451Z,32.28
2022-12-03T18:44:50.043Z,31.00
2022-12-03T18:47:19.211Z,31.98
2022-12-03T18:49:55.881Z,27.25
2022-12-03T18:52:23.797Z,28.52
2022-12-03T18:54:50.787Z,26.00
2022-12-03T18:57:18.085Z,29.90
2022-12-03T18:59:45.213Z,27.10
2022-12-03T19:05:09.092Z,26.35
2022-12-03T19:07:36.200Z,29.17
2022-12-03T19:10:03.559Z,28.65
2022-12-03T19:12:31.372Z,28.60
2022-12-03T19:14:59.729Z,24.48
2022-12-03T19:17:27.522Z,25.48
2022-12-03T19:19:55.237Z,22.90
2022-12-03T19:22:22.653Z,17.73
2022-12-03T19:24:50.227Z,25.20
2022-12-03T19:27:17.230Z,21.50
2022-12-03T19:29:44.630Z,19.25
2022-12-03T19:32:11.534Z,19.25
2022-12-03T19:34:38.499Z,20.60
2022-12-03T19:37:05.561Z,19.13
2022-12-03T19:39:33.397Z,21.25
2022-12-03T19:42:00.338Z,25.63
2022-12-03T19:44:27.325Z,29.15
2022-12-03T19:46:54.530Z,20.63
2022-12-03T19:49:21.628Z,19.83
2022-12-03T19:51:48.726Z,23.40
2022-12-03T19:54:15.788Z,22.67
2022-12-03T19:56:43.186Z,19.77
2022-12-03T19:59:13.418Z,15.43
2022-12-03T20:01:40.966Z,15.65
2022-12-03T20:04:08.177Z,12.23
2022-12-03T20:06:37.619Z,17.98
2022-12-03T20:09:07.739Z,12.52
2022-12-03T20:11:34.846Z,20.98
2022-12-03T20:14:04.149Z,25.17
2022-12-03T20:16:31.160Z,37.95
2022-12-03T20:19:02.612Z,32.00
2022-12-03T20:21:30.820Z,27.58
2022-12-03T20:23:58.025Z,30.30
2022-12-03T20:26:25.078Z,29.35
2022-12-03T20:28:53.567Z,25.33
2022-12-03T20:31:21.607Z,26.25
2022-12-03T20:33:49.903Z,29.42
2022-12-03T20:36:18.558Z,26.17
2022-12-03T20:38:45.536Z,27.60
2022-12-03T20:41:14.214Z,30.67
2022-12-03T20:43:41.534Z,27.73
2022-12-03T20:46:27.649Z,28.40
2022-12-03T20:48:55.277Z,34.10
2022-12-03T20:51:24.505Z,28.92
2022-12-03T20:53:51.522Z,31.63
2022-12-03T20:56:22.032Z,29.40
2022-12-03T20:58:49.456Z,24.30
2022-12-03T21:01:24.422Z,33.97
2022-12-03T21:03:52.018Z,29.77
2022-12-03T21:06:19.093Z,26.17
2022-12-03T21:08:46.328Z,22.88
2022-12-03T21:11:20.471Z,26.67
2022-12-03T21:13:47.626Z,26.00
2022-12-03T21:16:17.049Z,25.60
2022-12-03T21:18:44.188Z,29.90
2022-12-03T21:21:11.674Z,20.42
2022-12-03T21:23:38.732Z,25.52
2022-12-03T21:26:12.627Z,24.45
2022-12-03T21:28:40.935Z,25.50
2022-12-03T21:31:10.250Z,26.52
2022-12-03T21:33:37.511Z,28.90
2022-12-03T21:36:05.127Z,32.90
2022-12-03T21:38:32.467Z,34.85
2022-12-03T21:40:59.741Z,35.22
2022-12-03T21:43:27.006Z,30.88
2022-12-03T21:45:54.052Z,31.83
2022-12-03T21:48:21.332Z,29.52
2022-12-03T21:51:04.908Z,28.98
2022-12-03T21:53:32.504Z,23.65
2022-12-03T21:55:59.849Z,22.20
2022-12-03T21:58:26.826Z,21.63
2022-12-03T22:00:53.934Z,23.00
2022-12-03T22:03:20.971Z,22.38
2022-12-03T22:05:49.102Z,21.95
2022-12-03T22:08:16.457Z,24.27
2022-12-03T22:10:43.504Z,24.35
2022-12-03T22:13:10.540Z,21.38
2022-12-03T22:15:40.606Z,17.55
2022-12-03T22:18:07.676Z,17.15
2022-12-03T22:20:34.645Z,14.95
2022-12-03T22:23:01.616Z,29.38
2022-12-03T22:25:28.905Z,25.75
2022-12-03T22:27:55.941Z,21.00
2022-12-03T22:30:22.860Z,21.60
2022-12-03T22:32:50.064Z,16.98
2022-12-03T22:35:17.031Z,24.75
2022-12-03T22:37:44.027Z,23.00
2022-12-03T22:40:11.401Z,24.13
2022-12-03T22:42:38.368Z,17.73
2022-12-03T22:45:05.869Z,25.10
2022-12-03T22:47:32.995Z,17.08
2022-12-03T22:49:59.924Z,25.25
2022-12-03T22:52:26.966Z,19.25
2022-12-03T22:54:53.975Z,18.23
2022-12-03T22:57:21.006Z,20.48
2022-12-03T22:59:47.945Z,17.67
2022-12-03T23:02:15.023Z,18.98
2022-12-03T23:04:41.961Z,18.85
2022-12-03T23:07:08.938Z,19.27
2022-12-03T23:09:35.920Z,20.45
2022-12-03T23:12:02.927Z,17.25
2022-12-03T23:14:29.897Z,20.20
2022-12-03T23:16:56.882Z,18.10
2022-12-03T23:19:23.987Z,19.27
2022-12-03T23:21:50.950Z,18.30
2022-12-03T23:24:17.927Z,20.20
2022-12-03T23:26:44.922Z,18.95
2022-12-03T23:29:12.056Z,22.90
2022-12-03T23:31:39.048Z,20.45
2022-12-03T23:34:06.284Z,20.63
2022-12-03T23:36:33.978Z,20.30
2022-12-03T23:39:01.030Z,19.40
2022-12-03T23:41:28.057Z,22.40
2022-12-03T23:43:55.112Z,24.70
2022-12-03T23:46:23.985Z,25.42
2022-12-03T23:48:51.431Z,20.05
2022-12-03T23:51:20.665Z,22.23
2022-12-03T23:53:47.890Z,21.85
2022-12-03T23:56:20.084Z,20.50
2022-12-03T23:58:47.067Z,19.33
